Impacts METAR Board
IDs:

KBOS - Boston/Logan Intl, MA, US

Updated at: 1500 UTC 03 Dec 2021
Potential Impact None Slight Moderate High
Time 03/03Z 03/04Z 03/05Z 03/06Z 03/07Z 03/08Z 03/09Z 03/10Z 03/11Z 03/12Z 03/13Z 03/14Z 03/15Z
Temp52 45 45 44 44 43 43 42 42 41 41 40 41
Dewpt44 39 38 37 35 35 32 29 28 28 24 21 20
Altim29.44 29.50 29.47 29.49 29.52 29.53 29.54 29.57 29.63 29.66 29.69 29.76 29.78
VIS10 8 10 10 10 10 10 10 10 10 10 10 10
CIG120 50 60 -- -- -- -- -- -- 50 46 -- --
CoverBKNOVCOVCSCTFEWFEWFEWSCTSCTBKNBKNSCTFEW
FltCatVFRVFRVFRVFRVFRVFRVFRVFRVFRVFRVFRVFRVFR
WX---RA----------------------
WDir220290250270260260270270270270310300290
WSpd8 16 11 16 15 13 21 13 20 16 16 17 16
WGst-- 29 -- 24 25 21 32 21 26 22 25 25 22
Raw hourly METARs
KBOS 030254Z 22008KT 10SM SCT055 SCT090 BKN120 11/07 A2944 RMK AO2 SLP968 T01110067 56023
KBOS 030354Z 29016G29KT 8SM -RA SCT027 BKN050 OVC095 07/04 A2950 RMK AO2 PK WND 29035/0322 RAB0259 SLP991 P0000 T00720039
KBOS 030454Z 25011KT 10SM FEW035 BKN060 OVC090 07/03 A2947 RMK AO2 RAE26 SLP980 P0001 T00720033 401560022
KBOS 030554Z 27016G24KT 10SM FEW060 SCT100 07/03 A2949 RMK AO2 SLP986 60001 T00670028 10122 20067 51018
KBOS 030654Z 26015G25KT 10SM FEW100 07/02 A2952 RMK AO2 SLP996 T00670017
KBOS 030754Z 26013G21KT 10SM FEW100 06/02 A2953 RMK AO2 PK WND 25026/0744 SLP000 T00610017
KBOS 030854Z 27021G32KT 10SM FEW050 06/00 A2954 RMK AO2 PK WND 27032/0849 SLP002 T00610000 51015
KBOS 030954Z 27013G21KT 10SM SCT050 SCT200 06/M02 A2957 RMK AO2 PK WND 27029/0903 SLP012 T00561017
KBOS 031054Z 27020G26KT 10SM SCT045 06/M02 A2963 RMK AO2 PK WND 27029/1018 SLP031 T00561022
KBOS 031154Z 27016G22KT 10SM BKN050 05/M02 A2966 RMK AO2 SLP043 70002 T00501022 10067 20050 53042
KBOS 031254Z 31016G25KT 10SM BKN046 05/M04 A2969 RMK AO2 PK WND 29026/1157 SLP054 T00501044
KBOS 031354Z 30017G25KT 10SM SCT046 SCT200 04/M06 A2976 RMK AO2 PK WND 31026/1343 SLP077 T00441061
KBOS 031454Z 29016G22KT 10SM FEW046 FEW200 05/M07 A2978 RMK AO2 PK WND 29029/1409 SLP083 T00501067 51040



Page loaded:  15:45 UTC  |   07:45 AM Pacific  |   08:45 AM Mountain  |   09:45 AM Central  |   10:45 AM Eastern

 

ADVISORIES

FORECASTS

FORECASTS

OBSERVATIONS

USER TOOLS

ABOUT US